ROMMA est une association bénévole à but non lucratif. Votre soutien est indispensable : ADHERER à ROMMA ou FAIRE un DON

Taninges - (74, Haute-Savoie)

Vallée du Giffre (635 m)   Longitude: 06° 35' 38" E   Latitude: 46° 06' 21" N Station romma n°98
 

Détail journalier du     <<     >>

Température Precipitation Humidité Pression Vent Dir Rafale Dir. rafale Ensol.
Heure (°C) (mm) (%) (hPa) (km/h) (km/h) (min)
01:00 15.309410121S5ESE0
02:00 14.6094101205S0
03:00 14.209510121SSE5ESE0
04:00 14.309610111S6SSE0
05:00 13.509510121O6ENE0
06:00 13.309610121E6SSE0
07:00 13.209610121SSE5SSE15
08:00 14.309710111SSE3SSE15
09:00 18.408510112SE6SSO60
10:00 22.706910103SO8OSO60
11:00 25.705810105O16O60
12:00 28.105410095OSO16O60
13:00 30.204710095OSO16OSO60
14:00 31.304110095SO19OSO60
15:00 31.704610088OSO21SSO55
16:00 33.003610075O16ONO55
17:00 32.904410075SO15SO60
18:00 32.604510075S11SSO45
19:00 31.904510076O18ONO60
20:00 27.905710085OSO16OSO0
21:00 25.606710081ENE6ESE0
22:00 26.106710103N19O0
23:00 26.606410107ONO26NO0
minuit 21.90.88910114O18O0

Graphique du 09-08-2019

 

Serveur OMMA